sensor_id;sensor_type;location;lat;lon;timestamp;temperature;humidity
17986;DHT22;9118;48.122;11.546;2023-12-22T00:04:51;6.40;99.90
17986;DHT22;9118;48.122;11.546;2023-12-22T00:07:18;6.40;99.90
17986;DHT22;9118;48.122;11.546;2023-12-22T00:12:15;6.50;99.90
17986;DHT22;9118;48.122;11.546;2023-12-22T00:14:43;6.40;99.90
17986;DHT22;9118;48.122;11.546;2023-12-22T00:17:10;6.50;99.90
17986;DHT22;9118;48.122;11.546;2023-12-22T00:22:03;5.40;99.90
17986;DHT22;9118;48.122;11.546;2023-12-22T00:26:57;3.80;99.90
17986;DHT22;9118;48.122;11.546;2023-12-22T06:03:28;4.70;99.90
17986;DHT22;9118;48.122;11.546;2023-12-22T06:15:46;4.60;99.90
17986;DHT22;9118;48.122;11.546;2023-12-22T06:20:42;4.70;99.90
17986;DHT22;9118;48.122;11.546;2023-12-22T06:23:09;4.60;99.90
17986;DHT22;9118;48.122;11.546;2023-12-22T06:25:36;4.70;99.90
17986;DHT22;9118;48.122;11.546;2023-12-22T06:28:03;4.70;99.90
17986;DHT22;9118;48.122;11.546;2023-12-22T06:32:58;4.70;99.90
17986;DHT22;9118;48.122;11.546;2023-12-22T06:35:25;4.60;99.90
17986;DHT22;9118;48.122;11.546;2023-12-22T06:37:53;4.70;99.90
17986;DHT22;9118;48.122;11.546;2023-12-22T06:40:21;4.60;99.90
17986;DHT22;9118;48.122;11.546;2023-12-22T06:42:47;4.70;99.90
17986;DHT22;9118;48.122;11.546;2023-12-22T06:45:14;4.80;99.90
17986;DHT22;9118;48.122;11.546;2023-12-22T06:47:41;4.80;99.90
17986;DHT22;9118;48.122;11.546;2023-12-22T06:55:05;5.10;99.90
17986;DHT22;9118;48.122;11.546;2023-12-22T06:59:59;5.20;99.90
17986;DHT22;9118;48.122;11.546;2023-12-22T07:02:27;5.30;99.90
17986;DHT22;9118;48.122;11.546;2023-12-22T07:07:39;5.20;99.90
17986;DHT22;9118;48.122;11.546;2023-12-22T07:10:07;5.40;99.90
17986;DHT22;9118;48.122;11.546;2023-12-22T07:12:36;5.40;99.90
17986;DHT22;9118;48.122;11.546;2023-12-22T07:15:04;5.50;99.90
17986;DHT22;9118;48.122;11.546;2023-12-22T07:17:32;5.40;99.90
17986;DHT22;9118;48.122;11.546;2023-12-22T07:19:59;5.50;99.90
17986;DHT22;9118;48.122;11.546;2023-12-22T07:24:55;5.50;99.90
17986;DHT22;9118;48.122;11.546;2023-12-22T07:27:23;5.40;99.90
17986;DHT22;9118;48.122;11.546;2023-12-22T07:29:51;5.20;99.90
17986;DHT22;9118;48.122;11.546;2023-12-22T07:32:18;5.10;99.90
17986;DHT22;9118;48.122;11.546;2023-12-22T07:37:13;4.80;99.90
17986;DHT22;9118;48.122;11.546;2023-12-22T07:39:39;4.80;99.90
17986;DHT22;9118;48.122;11.546;2023-12-22T07:42:07;4.70;99.90
17986;DHT22;9118;48.122;11.546;2023-12-22T07:44:35;4.80;99.90
17986;DHT22;9118;48.122;11.546;2023-12-22T07:47:02;4.80;99.90
17986;DHT22;9118;48.122;11.546;2023-12-22T07:49:29;4.90;99.90
17986;DHT22;9118;48.122;11.546;2023-12-22T07:51:55;4.90;99.90
17986;DHT22;9118;48.122;11.546;2023-12-22T07:54:22;5.00;99.90
17986;DHT22;9118;48.122;11.546;2023-12-22T07:56:49;5.00;99.90
17986;DHT22;9118;48.122;11.546;2023-12-22T07:59:16;5.20;99.90
17986;DHT22;9118;48.122;11.546;2023-12-22T08:01:44;5.20;99.90
17986;DHT22;9118;48.122;11.546;2023-12-22T08:04:11;5.30;99.90
17986;DHT22;9118;48.122;11.546;2023-12-22T08:06:38;5.40;99.90
17986;DHT22;9118;48.122;11.546;2023-12-22T08:09:05;5.50;99.90
17986;DHT22;9118;48.122;11.546;2023-12-22T08:11:32;5.70;99.90
17986;DHT22;9118;48.122;11.546;2023-12-22T08:13:58;5.60;99.90
17986;DHT22;9118;48.122;11.546;2023-12-22T08:16:25;5.50;99.90
17986;DHT22;9118;48.122;11.546;2023-12-22T08:21:20;5.30;99.90
17986;DHT22;9118;48.122;11.546;2023-12-22T08:26:15;4.90;99.90
17986;DHT22;9118;48.122;11.546;2023-12-22T08:28:43;4.30;99.90
17986;DHT22;9118;48.122;11.546;2023-12-22T08:31:10;4.30;99.90
17986;DHT22;9118;48.122;11.546;2023-12-22T08:33:37;4.30;99.90
17986;DHT22;9118;48.122;11.546;2023-12-22T08:36:06;4.40;99.90
17986;DHT22;9118;48.122;11.546;2023-12-22T08:38:34;4.50;99.90
17986;DHT22;9118;48.122;11.546;2023-12-22T08:41:02;4.60;99.90
17986;DHT22;9118;48.122;11.546;2023-12-22T08:43:29;4.50;99.90
17986;DHT22;9118;48.122;11.546;2023-12-22T08:45:55;4.60;99.90
17986;DHT22;9118;48.122;11.546;2023-12-22T08:50:49;4.80;99.90
17986;DHT22;9118;48.122;11.546;2023-12-22T08:53:16;4.80;99.90
17986;DHT22;9118;48.122;11.546;2023-12-22T08:55:44;4.80;99.90
17986;DHT22;9118;48.122;11.546;2023-12-22T08:58:11;4.90;99.90
17986;DHT22;9118;48.122;11.546;2023-12-22T09:00:38;5.00;99.90
17986;DHT22;9118;48.122;11.546;2023-12-22T09:03:05;5.00;99.90
17986;DHT22;9118;48.122;11.546;2023-12-22T09:05:31;5.10;99.90
17986;DHT22;9118;48.122;11.546;2023-12-22T09:07:58;5.10;99.90
17986;DHT22;9118;48.122;11.546;2023-12-22T09:10:25;5.20;99.90
17986;DHT22;9118;48.122;11.546;2023-12-22T09:12:53;5.20;99.90
17986;DHT22;9118;48.122;11.546;2023-12-22T09:15:20;5.30;99.90
17986;DHT22;9118;48.122;11.546;2023-12-22T09:17:47;5.20;99.90
17986;DHT22;9118;48.122;11.546;2023-12-22T09:20:14;5.20;99.90
17986;DHT22;9118;48.122;11.546;2023-12-22T09:22:42;5.40;99.90
17986;DHT22;9118;48.122;11.546;2023-12-22T09:25:09;5.50;99.90
17986;DHT22;9118;48.122;11.546;2023-12-22T09:27:36;5.50;99.90
17986;DHT22;9118;48.122;11.546;2023-12-22T09:30:05;5.60;99.90
17986;DHT22;9118;48.122;11.546;2023-12-22T09:32:33;5.70;99.90
17986;DHT22;9118;48.122;11.546;2023-12-22T09:35:00;5.70;99.90
17986;DHT22;9118;48.122;11.546;2023-12-22T09:39:55;5.80;99.90
17986;DHT22;9118;48.122;11.546;2023-12-22T09:42:22;5.80;99.90
17986;DHT22;9118;48.122;11.546;2023-12-22T09:44:52;5.80;99.90
17986;DHT22;9118;48.122;11.546;2023-12-22T09:47:20;5.70;99.90
17986;DHT22;9118;48.122;11.546;2023-12-22T09:49:47;5.80;99.90
17986;DHT22;9118;48.122;11.546;2023-12-22T09:52:14;5.80;99.90
17986;DHT22;9118;48.122;11.546;2023-12-22T09:54:45;5.80;99.90
17986;DHT22;9118;48.122;11.546;2023-12-22T09:57:13;5.80;99.90
17986;DHT22;9118;48.122;11.546;2023-12-22T09:59:40;5.70;99.90
17986;DHT22;9118;48.122;11.546;2023-12-22T10:02:09;5.60;99.90
17986;DHT22;9118;48.122;11.546;2023-12-22T10:04:37;5.70;99.90
17986;DHT22;9118;48.122;11.546;2023-12-22T10:07:04;5.50;99.90
17986;DHT22;9118;48.122;11.546;2023-12-22T10:09:31;5.40;99.90
17986;DHT22;9118;48.122;11.546;2023-12-22T10:11:58;5.10;99.90
17986;DHT22;9118;48.122;11.546;2023-12-22T10:14:27;5.00;99.90
17986;DHT22;9118;48.122;11.546;2023-12-22T10:16:54;4.70;99.90
17986;DHT22;9118;48.122;11.546;2023-12-22T10:19:21;4.60;99.90
17986;DHT22;9118;48.122;11.546;2023-12-22T10:21:49;4.60;99.90
17986;DHT22;9118;48.122;11.546;2023-12-22T10:27:02;4.40;99.90
17986;DHT22;9118;48.122;11.546;2023-12-22T10:34:23;4.40;99.90
17986;DHT22;9118;48.122;11.546;2023-12-22T10:36:51;4.50;99.90
17986;DHT22;9118;48.122;11.546;2023-12-22T10:39:18;4.40;99.90
17986;DHT22;9118;48.122;11.546;2023-12-22T10:41:46;4.40;99.90
17986;DHT22;9118;48.122;11.546;2023-12-22T10:44:13;4.40;99.90
17986;DHT22;9118;48.122;11.546;2023-12-22T10:46:42;4.50;99.90
17986;DHT22;9118;48.122;11.546;2023-12-22T10:49:09;4.40;99.90
17986;DHT22;9118;48.122;11.546;2023-12-22T10:54:05;4.50;99.90
17986;DHT22;9118;48.122;11.546;2023-12-22T10:56:32;4.60;99.90
17986;DHT22;9118;48.122;11.546;2023-12-22T11:01:27;4.80;99.90
17986;DHT22;9118;48.122;11.546;2023-12-22T11:03:57;5.00;99.90
17986;DHT22;9118;48.122;11.546;2023-12-22T11:06:24;5.10;99.90
17986;DHT22;9118;48.122;11.546;2023-12-22T11:08:52;5.20;99.90
17986;DHT22;9118;48.122;11.546;2023-12-22T11:11:27;5.20;99.90
17986;DHT22;9118;48.122;11.546;2023-12-22T11:13:57;5.30;99.90
17986;DHT22;9118;48.122;11.546;2023-12-22T11:16:24;5.30;99.90
17986;DHT22;9118;48.122;11.546;2023-12-22T11:18:54;5.20;99.90
17986;DHT22;9118;48.122;11.546;2023-12-22T11:21:22;5.10;99.90
17986;DHT22;9118;48.122;11.546;2023-12-22T11:26:16;5.20;99.90
17986;DHT22;9118;48.122;11.546;2023-12-22T11:28:44;5.20;99.90
17986;DHT22;9118;48.122;11.546;2023-12-22T11:31:11;5.20;99.90
17986;DHT22;9118;48.122;11.546;2023-12-22T11:33:41;5.30;99.90
17986;DHT22;9118;48.122;11.546;2023-12-22T11:36:09;5.30;99.90
17986;DHT22;9118;48.122;11.546;2023-12-22T11:38:37;5.20;99.90
17986;DHT22;9118;48.122;11.546;2023-12-22T11:41:06;5.20;99.90
17986;DHT22;9118;48.122;11.546;2023-12-22T11:43:38;5.30;99.90
17986;DHT22;9118;48.122;11.546;2023-12-22T11:46:06;5.20;99.90
17986;DHT22;9118;48.122;11.546;2023-12-22T11:48:33;5.20;99.90
17986;DHT22;9118;48.122;11.546;2023-12-22T11:51:00;5.10;99.90
17986;DHT22;9118;48.122;11.546;2023-12-22T11:53:29;5.00;99.90
17986;DHT22;9118;48.122;11.546;2023-12-22T11:55:58;5.10;99.90
17986;DHT22;9118;48.122;11.546;2023-12-22T11:58:35;5.10;99.90
17986;DHT22;9118;48.122;11.546;2023-12-22T12:01:03;5.20;99.90
17986;DHT22;9118;48.122;11.546;2023-12-22T12:03:40;5.20;99.90
17986;DHT22;9118;48.122;11.546;2023-12-22T12:08:34;5.20;99.90
17986;DHT22;9118;48.122;11.546;2023-12-22T12:11:01;5.30;99.90
17986;DHT22;9118;48.122;11.546;2023-12-22T12:13:28;5.30;99.90
17986;DHT22;9118;48.122;11.546;2023-12-22T12:18:27;5.20;99.90
17986;DHT22;9118;48.122;11.546;2023-12-22T12:20:55;5.30;99.90
17986;DHT22;9118;48.122;11.546;2023-12-22T12:23:23;5.20;99.90
17986;DHT22;9118;48.122;11.546;2023-12-22T12:25:50;5.30;99.90
17986;DHT22;9118;48.122;11.546;2023-12-22T12:28:17;5.30;99.90
17986;DHT22;9118;48.122;11.546;2023-12-22T12:30:44;5.40;99.90
17986;DHT22;9118;48.122;11.546;2023-12-22T12:33:12;5.20;99.90
17986;DHT22;9118;48.122;11.546;2023-12-22T12:35:39;5.40;99.90
17986;DHT22;9118;48.122;11.546;2023-12-22T12:38:08;5.50;99.90
17986;DHT22;9118;48.122;11.546;2023-12-22T12:40:34;5.50;99.90
17986;DHT22;9118;48.122;11.546;2023-12-22T12:43:04;5.50;99.90
17986;DHT22;9118;48.122;11.546;2023-12-22T12:45:31;5.60;99.90
17986;DHT22;9118;48.122;11.546;2023-12-22T12:48:02;5.50;99.90
17986;DHT22;9118;48.122;11.546;2023-12-22T12:50:29;5.50;99.90
17986;DHT22;9118;48.122;11.546;2023-12-22T12:52:57;5.60;99.90
17986;DHT22;9118;48.122;11.546;2023-12-22T12:55:25;5.60;99.90
17986;DHT22;9118;48.122;11.546;2023-12-22T12:57:52;5.60;99.90
17986;DHT22;9118;48.122;11.546;2023-12-22T13:02:46;5.70;99.90
17986;DHT22;9118;48.122;11.546;2023-12-22T13:05:19;5.70;99.90
17986;DHT22;9118;48.122;11.546;2023-12-22T13:12:42;5.60;99.90
17986;DHT22;9118;48.122;11.546;2023-12-22T13:15:09;5.60;99.90
17986;DHT22;9118;48.122;11.546;2023-12-22T13:17:36;5.60;99.90
17986;DHT22;9118;48.122;11.546;2023-12-22T13:20:03;5.60;99.90
17986;DHT22;9118;48.122;11.546;2023-12-22T13:24:59;5.60;99.90
17986;DHT22;9118;48.122;11.546;2023-12-22T13:27:26;5.50;99.90
17986;DHT22;9118;48.122;11.546;2023-12-22T13:29:54;5.40;99.90
17986;DHT22;9118;48.122;11.546;2023-12-22T13:32:22;5.40;99.90
17986;DHT22;9118;48.122;11.546;2023-12-22T13:34:52;5.50;99.90
17986;DHT22;9118;48.122;11.546;2023-12-22T13:37:19;5.40;99.90
17986;DHT22;9118;48.122;11.546;2023-12-22T13:39:47;5.40;99.90
17986;DHT22;9118;48.122;11.546;2023-12-22T13:42:15;5.40;99.90
17986;DHT22;9118;48.122;11.546;2023-12-22T13:44:44;5.50;99.90
17986;DHT22;9118;48.122;11.546;2023-12-22T13:47:15;5.50;99.90
17986;DHT22;9118;48.122;11.546;2023-12-22T13:49:42;5.50;99.90
17986;DHT22;9118;48.122;11.546;2023-12-22T13:52:24;5.60;99.90
17986;DHT22;9118;48.122;11.546;2023-12-22T13:54:50;5.60;99.90
17986;DHT22;9118;48.122;11.546;2023-12-22T13:59:46;5.70;99.90
17986;DHT22;9118;48.122;11.546;2023-12-22T14:02:12;5.60;99.90
17986;DHT22;9118;48.122;11.546;2023-12-22T14:04:43;5.70;99.90
17986;DHT22;9118;48.122;11.546;2023-12-22T14:07:10;5.70;99.90
17986;DHT22;9118;48.122;11.546;2023-12-22T14:09:37;5.70;99.90
17986;DHT22;9118;48.122;11.546;2023-12-22T14:12:04;5.80;99.90
17986;DHT22;9118;48.122;11.546;2023-12-22T14:14:31;5.80;99.90
17986;DHT22;9118;48.122;11.546;2023-12-22T14:16:58;5.80;99.90
17986;DHT22;9118;48.122;11.546;2023-12-22T14:19:27;5.80;99.90
17986;DHT22;9118;48.122;11.546;2023-12-22T14:24:23;5.80;99.90
17986;DHT22;9118;48.122;11.546;2023-12-22T14:26:53;5.90;99.90
17986;DHT22;9118;48.122;11.546;2023-12-22T14:29:20;5.90;99.90
17986;DHT22;9118;48.122;11.546;2023-12-22T14:31:48;5.90;99.90
17986;DHT22;9118;48.122;11.546;2023-12-22T14:34:15;5.80;99.90
17986;DHT22;9118;48.122;11.546;2023-12-22T14:36:42;5.90;99.90
17986;DHT22;9118;48.122;11.546;2023-12-22T14:39:09;5.90;99.90
17986;DHT22;9118;48.122;11.546;2023-12-22T14:44:09;5.90;99.90
17986;DHT22;9118;48.122;11.546;2023-12-22T14:49:02;6.00;99.90
17986;DHT22;9118;48.122;11.546;2023-12-22T14:51:29;5.90;99.90
17986;DHT22;9118;48.122;11.546;2023-12-22T14:54:00;6.00;99.90
17986;DHT22;9118;48.122;11.546;2023-12-22T14:56:27;6.00;99.90
17986;DHT22;9118;48.122;11.546;2023-12-22T14:58:54;6.00;99.90
17986;DHT22;9118;48.122;11.546;2023-12-22T15:03:49;6.00;99.90
17986;DHT22;9118;48.122;11.546;2023-12-22T15:06:16;6.10;99.90
17986;DHT22;9118;48.122;11.546;2023-12-22T15:08:43;6.00;99.90
17986;DHT22;9118;48.122;11.546;2023-12-22T15:11:09;6.10;99.90
17986;DHT22;9118;48.122;11.546;2023-12-22T15:16:04;6.00;99.90
17986;DHT22;9118;48.122;11.546;2023-12-22T15:18:31;5.80;99.90
17986;DHT22;9118;48.122;11.546;2023-12-22T15:21:01;6.00;99.90
17986;DHT22;9118;48.122;11.546;2023-12-22T15:23:31;6.00;99.90
17986;DHT22;9118;48.122;11.546;2023-12-22T15:25:57;6.00;99.90
17986;DHT22;9118;48.122;11.546;2023-12-22T15:28:24;6.10;99.90
17986;DHT22;9118;48.122;11.546;2023-12-22T15:30:51;6.10;99.90
17986;DHT22;9118;48.122;11.546;2023-12-22T15:33:18;6.10;99.90
17986;DHT22;9118;48.122;11.546;2023-12-22T15:35:44;6.20;99.90
17986;DHT22;9118;48.122;11.546;2023-12-22T15:38:12;6.10;99.90
17986;DHT22;9118;48.122;11.546;2023-12-22T15:43:09;6.20;99.90
17986;DHT22;9118;48.122;11.546;2023-12-22T15:45:36;6.10;99.90
17986;DHT22;9118;48.122;11.546;2023-12-22T15:48:03;6.20;99.90
17986;DHT22;9118;48.122;11.546;2023-12-22T15:50:30;6.20;99.90
17986;DHT22;9118;48.122;11.546;2023-12-22T15:52:57;6.20;99.90
17986;DHT22;9118;48.122;11.546;2023-12-22T15:55:25;6.10;99.90
17986;DHT22;9118;48.122;11.546;2023-12-22T16:00:19;6.10;99.90
17986;DHT22;9118;48.122;11.546;2023-12-22T16:02:46;6.20;99.90
17986;DHT22;9118;48.122;11.546;2023-12-22T16:05:13;6.20;99.90
17986;DHT22;9118;48.122;11.546;2023-12-22T16:07:40;6.20;99.90
17986;DHT22;9118;48.122;11.546;2023-12-22T16:10:07;6.30;99.90
17986;DHT22;9118;48.122;11.546;2023-12-22T16:12:36;6.30;99.90
17986;DHT22;9118;48.122;11.546;2023-12-22T16:15:03;6.30;99.90
17986;DHT22;9118;48.122;11.546;2023-12-22T16:17:30;6.30;99.90
17986;DHT22;9118;48.122;11.546;2023-12-22T16:19:57;6.30;99.90
17986;DHT22;9118;48.122;11.546;2023-12-22T16:22:23;6.40;99.90
17986;DHT22;9118;48.122;11.546;2023-12-22T16:24:50;6.40;99.90
17986;DHT22;9118;48.122;11.546;2023-12-22T16:27:17;6.40;99.90
17986;DHT22;9118;48.122;11.546;2023-12-22T16:29:46;6.40;99.90
17986;DHT22;9118;48.122;11.546;2023-12-22T16:32:13;6.40;99.90
17986;DHT22;9118;48.122;11.546;2023-12-22T16:34:41;6.50;99.90
17986;DHT22;9118;48.122;11.546;2023-12-22T16:37:08;6.50;99.90
17986;DHT22;9118;48.122;11.546;2023-12-22T16:39:35;6.50;99.90
17986;DHT22;9118;48.122;11.546;2023-12-22T16:42:13;6.60;99.90
17986;DHT22;9118;48.122;11.546;2023-12-22T16:44:40;6.50;99.90
17986;DHT22;9118;48.122;11.546;2023-12-22T16:47:09;6.70;99.90
17986;DHT22;9118;48.122;11.546;2023-12-22T16:49:36;6.60;99.90
17986;DHT22;9118;48.122;11.546;2023-12-22T16:52:03;6.70;99.90
17986;DHT22;9118;48.122;11.546;2023-12-22T16:54:30;6.70;99.90
17986;DHT22;9118;48.122;11.546;2023-12-22T16:56:57;6.70;99.90
17986;DHT22;9118;48.122;11.546;2023-12-22T16:59:24;6.70;99.90
17986;DHT22;9118;48.122;11.546;2023-12-22T17:01:51;6.70;99.90
17986;DHT22;9118;48.122;11.546;2023-12-22T17:04:19;6.70;99.90
17986;DHT22;9118;48.122;11.546;2023-12-22T17:06:46;6.70;99.90
17986;DHT22;9118;48.122;11.546;2023-12-22T17:09:13;6.70;99.90
17986;DHT22;9118;48.122;11.546;2023-12-22T17:11:40;6.70;99.90
17986;DHT22;9118;48.122;11.546;2023-12-22T17:14:08;6.50;99.90
17986;DHT22;9118;48.122;11.546;2023-12-22T17:16:34;6.60;99.90
17986;DHT22;9118;48.122;11.546;2023-12-22T17:21:30;6.60;99.90
17986;DHT22;9118;48.122;11.546;2023-12-22T17:23:57;6.60;99.90
17986;DHT22;9118;48.122;11.546;2023-12-22T17:26:23;6.60;99.90
17986;DHT22;9118;48.122;11.546;2023-12-22T17:28:50;6.60;99.90
17986;DHT22;9118;48.122;11.546;2023-12-22T17:31:17;6.70;99.90
17986;DHT22;9118;48.122;11.546;2023-12-22T17:33:44;6.70;99.90
17986;DHT22;9118;48.122;11.546;2023-12-22T17:38:39;6.70;99.90
17986;DHT22;9118;48.122;11.546;2023-12-22T17:43:33;6.70;99.90
17986;DHT22;9118;48.122;11.546;2023-12-22T17:46:00;6.70;99.90
17986;DHT22;9118;48.122;11.546;2023-12-22T17:48:27;6.80;99.90
17986;DHT22;9118;48.122;11.546;2023-12-22T17:55:52;6.80;99.90
17986;DHT22;9118;48.122;11.546;2023-12-22T17:58:18;6.80;99.90
17986;DHT22;9118;48.122;11.546;2023-12-22T18:00:45;6.80;99.90
17986;DHT22;9118;48.122;11.546;2023-12-22T18:03:12;6.80;99.90
17986;DHT22;9118;48.122;11.546;2023-12-22T18:05:39;6.80;99.90
17986;DHT22;9118;48.122;11.546;2023-12-22T18:08:06;6.80;99.90
17986;DHT22;9118;48.122;11.546;2023-12-22T18:13:01;6.80;99.90
17986;DHT22;9118;48.122;11.546;2023-12-22T18:15:28;6.80;99.90
17986;DHT22;9118;48.122;11.546;2023-12-22T18:17:55;6.80;99.90
17986;DHT22;9118;48.122;11.546;2023-12-22T18:20:22;6.70;99.90
17986;DHT22;9118;48.122;11.546;2023-12-22T18:22:49;6.70;99.90
17986;DHT22;9118;48.122;11.546;2023-12-22T18:25:16;6.70;99.90
17986;DHT22;9118;48.122;11.546;2023-12-22T18:27:43;6.70;99.90
17986;DHT22;9118;48.122;11.546;2023-12-22T18:30:11;6.70;99.90
17986;DHT22;9118;48.122;11.546;2023-12-22T18:32:38;6.70;99.90
17986;DHT22;9118;48.122;11.546;2023-12-22T18:35:06;6.70;99.90
17986;DHT22;9118;48.122;11.546;2023-12-22T18:37:33;6.80;99.90
17986;DHT22;9118;48.122;11.546;2023-12-22T18:40:00;6.80;99.90
17986;DHT22;9118;48.122;11.546;2023-12-22T18:42:27;6.80;99.90
17986;DHT22;9118;48.122;11.546;2023-12-22T18:44:53;6.90;99.90
17986;DHT22;9118;48.122;11.546;2023-12-22T18:47:22;6.80;99.90
17986;DHT22;9118;48.122;11.546;2023-12-22T18:49:52;6.90;99.90
17986;DHT22;9118;48.122;11.546;2023-12-22T18:52:21;6.80;99.90
17986;DHT22;9118;48.122;11.546;2023-12-22T18:54:48;7.00;99.90
17986;DHT22;9118;48.122;11.546;2023-12-22T18:57:15;7.00;99.90
17986;DHT22;9118;48.122;11.546;2023-12-22T18:59:42;6.90;99.90
17986;DHT22;9118;48.122;11.546;2023-12-22T19:02:08;7.10;99.90
17986;DHT22;9118;48.122;11.546;2023-12-22T19:04:37;7.10;99.90
17986;DHT22;9118;48.122;11.546;2023-12-22T19:07:03;7.10;99.90
17986;DHT22;9118;48.122;11.546;2023-12-22T19:09:30;7.10;99.90
17986;DHT22;9118;48.122;11.546;2023-12-22T19:14:26;7.20;99.90
17986;DHT22;9118;48.122;11.546;2023-12-22T19:19:21;7.20;99.90
17986;DHT22;9118;48.122;11.546;2023-12-22T19:21:49;7.20;99.90
17986;DHT22;9118;48.122;11.546;2023-12-22T19:26:43;7.20;99.90
17986;DHT22;9118;48.122;11.546;2023-12-22T19:29:13;7.30;99.90
17986;DHT22;9118;48.122;11.546;2023-12-22T19:34:07;7.10;99.90
17986;DHT22;9118;48.122;11.546;2023-12-22T19:36:34;7.30;99.90
17986;DHT22;9118;48.122;11.546;2023-12-22T19:39:03;7.30;99.90
17986;DHT22;9118;48.122;11.546;2023-12-22T19:41:29;7.20;99.90
17986;DHT22;9118;48.122;11.546;2023-12-22T19:43:59;7.20;99.90
17986;DHT22;9118;48.122;11.546;2023-12-22T19:46:26;7.30;99.90
17986;DHT22;9118;48.122;11.546;2023-12-22T19:48:53;7.20;99.90
17986;DHT22;9118;48.122;11.546;2023-12-22T19:51:20;7.10;99.90
17986;DHT22;9118;48.122;11.546;2023-12-22T19:53:47;7.20;99.90
17986;DHT22;9118;48.122;11.546;2023-12-22T19:56:15;7.20;99.90
17986;DHT22;9118;48.122;11.546;2023-12-22T19:58:42;7.20;99.90
17986;DHT22;9118;48.122;11.546;2023-12-22T20:01:09;7.20;99.90
17986;DHT22;9118;48.122;11.546;2023-12-22T20:03:36;7.20;99.90
17986;DHT22;9118;48.122;11.546;2023-12-22T20:06:03;7.20;99.90
17986;DHT22;9118;48.122;11.546;2023-12-22T20:08:30;7.20;99.90
17986;DHT22;9118;48.122;11.546;2023-12-22T20:10:57;7.30;99.90
17986;DHT22;9118;48.122;11.546;2023-12-22T20:15:52;7.20;99.90
17986;DHT22;9118;48.122;11.546;2023-12-22T20:18:19;7.30;99.90
17986;DHT22;9118;48.122;11.546;2023-12-22T20:20:47;7.20;99.90
17986;DHT22;9118;48.122;11.546;2023-12-22T20:23:16;7.20;99.90
17986;DHT22;9118;48.122;11.546;2023-12-22T20:25:47;7.30;99.90
17986;DHT22;9118;48.122;11.546;2023-12-22T20:28:14;7.40;99.90
17986;DHT22;9118;48.122;11.546;2023-12-22T20:33:38;7.30;99.90
17986;DHT22;9118;48.122;11.546;2023-12-22T20:36:05;7.30;99.90
17986;DHT22;9118;48.122;11.546;2023-12-22T20:38:32;7.40;99.90
17986;DHT22;9118;48.122;11.546;2023-12-22T20:40:58;7.40;99.90
17986;DHT22;9118;48.122;11.546;2023-12-22T20:43:25;7.40;99.90
17986;DHT22;9118;48.122;11.546;2023-12-22T20:45:52;7.40;99.90
17986;DHT22;9118;48.122;11.546;2023-12-22T20:48:19;7.40;99.90
17986;DHT22;9118;48.122;11.546;2023-12-22T20:50:49;7.40;99.90
17986;DHT22;9118;48.122;11.546;2023-12-22T20:55:43;7.50;99.90
17986;DHT22;9118;48.122;11.546;2023-12-22T20:58:11;7.50;99.90
17986;DHT22;9118;48.122;11.546;2023-12-22T21:00:38;7.50;99.90
17986;DHT22;9118;48.122;11.546;2023-12-22T21:03:04;7.50;99.90
17986;DHT22;9118;48.122;11.546;2023-12-22T21:05:31;7.50;99.90
17986;DHT22;9118;48.122;11.546;2023-12-22T21:08:00;7.60;99.90
17986;DHT22;9118;48.122;11.546;2023-12-22T21:10:29;7.50;99.90
17986;DHT22;9118;48.122;11.546;2023-12-22T21:15:26;7.50;99.90
17986;DHT22;9118;48.122;11.546;2023-12-22T21:17:54;7.50;99.90
17986;DHT22;9118;48.122;11.546;2023-12-22T21:20:21;7.40;99.90
17986;DHT22;9118;48.122;11.546;2023-12-22T21:22:47;7.50;99.90
17986;DHT22;9118;48.122;11.546;2023-12-22T21:25:16;7.50;99.90
17986;DHT22;9118;48.122;11.546;2023-12-22T21:27:43;7.40;99.90
17986;DHT22;9118;48.122;11.546;2023-12-22T21:30:11;7.30;99.90
17986;DHT22;9118;48.122;11.546;2023-12-22T21:32:38;7.30;99.90
17986;DHT22;9118;48.122;11.546;2023-12-22T21:35:04;7.10;99.90
17986;DHT22;9118;48.122;11.546;2023-12-22T21:37:31;7.10;99.90
17986;DHT22;9118;48.122;11.546;2023-12-22T21:39:58;7.00;99.90
17986;DHT22;9118;48.122;11.546;2023-12-22T21:42:28;7.00;99.90
17986;DHT22;9118;48.122;11.546;2023-12-22T21:44:55;7.00;99.90
17986;DHT22;9118;48.122;11.546;2023-12-22T21:47:22;7.00;99.90
17986;DHT22;9118;48.122;11.546;2023-12-22T21:49:49;6.90;99.90
17986;DHT22;9118;48.122;11.546;2023-12-22T21:54:43;6.90;99.90
17986;DHT22;9118;48.122;11.546;2023-12-22T21:57:11;7.00;99.90
17986;DHT22;9118;48.122;11.546;2023-12-22T21:59:40;6.90;99.90
17986;DHT22;9118;48.122;11.546;2023-12-22T22:02:07;7.00;99.90
17986;DHT22;9118;48.122;11.546;2023-12-22T22:04:34;7.00;99.90
17986;DHT22;9118;48.122;11.546;2023-12-22T22:09:28;7.00;99.90
17986;DHT22;9118;48.122;11.546;2023-12-22T22:11:56;7.10;99.90
17986;DHT22;9118;48.122;11.546;2023-12-22T22:14:25;7.10;99.90
17986;DHT22;9118;48.122;11.546;2023-12-22T22:16:53;7.00;99.90
17986;DHT22;9118;48.122;11.546;2023-12-22T22:19:20;7.00;99.90
17986;DHT22;9118;48.122;11.546;2023-12-22T22:21:47;7.20;99.90
17986;DHT22;9118;48.122;11.546;2023-12-22T22:24:15;7.20;99.90
17986;DHT22;9118;48.122;11.546;2023-12-22T22:26:42;7.10;99.90
17986;DHT22;9118;48.122;11.546;2023-12-22T22:29:09;7.10;99.90
17986;DHT22;9118;48.122;11.546;2023-12-22T22:31:38;7.00;99.90
17986;DHT22;9118;48.122;11.546;2023-12-22T22:34:07;7.20;99.90
17986;DHT22;9118;48.122;11.546;2023-12-22T22:36:33;7.20;99.90
17986;DHT22;9118;48.122;11.546;2023-12-22T22:39:01;7.20;99.90
17986;DHT22;9118;48.122;11.546;2023-12-22T22:41:28;7.20;99.90
17986;DHT22;9118;48.122;11.546;2023-12-22T22:43:55;7.20;99.90
17986;DHT22;9118;48.122;11.546;2023-12-22T22:46:22;6.90;99.90
17986;DHT22;9118;48.122;11.546;2023-12-22T22:48:49;6.80;99.90
17986;DHT22;9118;48.122;11.546;2023-12-22T22:51:21;6.80;99.90
17986;DHT22;9118;48.122;11.546;2023-12-22T22:53:48;6.70;99.90
17986;DHT22;9118;48.122;11.546;2023-12-22T22:56:15;6.70;99.90
17986;DHT22;9118;48.122;11.546;2023-12-22T22:58:42;6.70;99.90
17986;DHT22;9118;48.122;11.546;2023-12-22T23:01:09;6.70;99.90
17986;DHT22;9118;48.122;11.546;2023-12-22T23:06:03;6.60;99.90
17986;DHT22;9118;48.122;11.546;2023-12-22T23:08:31;6.80;99.90
17986;DHT22;9118;48.122;11.546;2023-12-22T23:10:58;6.70;99.90
17986;DHT22;9118;48.122;11.546;2023-12-22T23:13:25;6.80;99.90
17986;DHT22;9118;48.122;11.546;2023-12-22T23:15:53;6.80;99.90
17986;DHT22;9118;48.122;11.546;2023-12-22T23:18:22;6.60;99.90
17986;DHT22;9118;48.122;11.546;2023-12-22T23:20:49;6.70;99.90
17986;DHT22;9118;48.122;11.546;2023-12-22T23:23:15;6.70;99.90
17986;DHT22;9118;48.122;11.546;2023-12-22T23:25:44;6.70;99.90
17986;DHT22;9118;48.122;11.546;2023-12-22T23:28:14;6.70;99.90
17986;DHT22;9118;48.122;11.546;2023-12-22T23:30:40;6.70;99.90
17986;DHT22;9118;48.122;11.546;2023-12-22T23:35:34;6.70;99.90
17986;DHT22;9118;48.122;11.546;2023-12-22T23:38:01;6.70;99.90
17986;DHT22;9118;48.122;11.546;2023-12-22T23:40:28;6.70;99.90
17986;DHT22;9118;48.122;11.546;2023-12-22T23:42:56;6.70;99.90
17986;DHT22;9118;48.122;11.546;2023-12-22T23:45:23;6.80;99.90